sensor_id;sensor_type;location;lat;lon;timestamp;P1;durP1;ratioP1;P2;durP2;ratioP2
35424;SDS011;21537;48.226;16.400;2022-09-09T00:00:11;1.55;;;0.73;;
35424;SDS011;21537;48.226;16.400;2022-09-09T00:02:47;1.45;;;0.80;;
35424;SDS011;21537;48.226;16.400;2022-09-09T00:08:20;1.63;;;0.65;;
35424;SDS011;21537;48.226;16.400;2022-09-09T00:10:56;1.80;;;0.70;;
35424;SDS011;21537;48.226;16.400;2022-09-09T00:16:34;1.27;;;0.57;;
35424;SDS011;21537;48.226;16.400;2022-09-09T00:19:07;1.48;;;0.70;;
35424;SDS011;21537;48.226;16.400;2022-09-09T00:21:52;1.60;;;0.70;;
35424;SDS011;21537;48.226;16.400;2022-09-09T00:24:38;1.00;;;0.75;;
35424;SDS011;21537;48.226;16.400;2022-09-09T00:30:19;0.68;;;0.60;;
35424;SDS011;21537;48.226;16.400;2022-09-09T00:32:55;2.03;;;0.40;;
35424;SDS011;21537;48.226;16.400;2022-09-09T00:35:56;2.40;;;0.50;;
35424;SDS011;21537;48.226;16.400;2022-09-09T00:38:28;1.90;;;0.77;;
35424;SDS011;21537;48.226;16.400;2022-09-09T00:52:36;1.75;;;0.60;;
35424;SDS011;21537;48.226;16.400;2022-09-09T00:55:14;0.63;;;0.63;;
35424;SDS011;21537;48.226;16.400;2022-09-09T00:57:51;5.10;;;0.65;;
35424;SDS011;21537;48.226;16.400;2022-09-09T01:05:48;1.13;;;0.70;;
35424;SDS011;21537;48.226;16.400;2022-09-09T01:09:00;1.70;;;0.73;;
35424;SDS011;21537;48.226;16.400;2022-09-09T01:11:45;0.75;;;0.52;;
35424;SDS011;21537;48.226;16.400;2022-09-09T01:14:38;2.08;;;0.60;;
35424;SDS011;21537;48.226;16.400;2022-09-09T01:20:13;0.85;;;0.50;;
35424;SDS011;21537;48.226;16.400;2022-09-09T01:23:01;0.40;;;0.40;;
35424;SDS011;21537;48.226;16.400;2022-09-09T01:28:17;1.30;;;0.80;;
35424;SDS011;21537;48.226;16.400;2022-09-09T01:30:48;1.60;;;0.70;;
35424;SDS011;21537;48.226;16.400;2022-09-09T01:33:17;2.05;;;0.80;;
35424;SDS011;21537;48.226;16.400;2022-09-09T01:35:51;0.88;;;0.70;;
35424;SDS011;21537;48.226;16.400;2022-09-09T01:38:32;2.05;;;0.68;;
35424;SDS011;21537;48.226;16.400;2022-09-09T01:40:59;1.58;;;0.57;;
35424;SDS011;21537;48.226;16.400;2022-09-09T01:43:36;4.72;;;0.60;;
35424;SDS011;21537;48.226;16.400;2022-09-09T01:46:02;1.85;;;0.88;;
35424;SDS011;21537;48.226;16.400;2022-09-09T01:48:30;0.55;;;0.47;;
35424;SDS011;21537;48.226;16.400;2022-09-09T01:51:02;1.95;;;0.60;;
35424;SDS011;21537;48.226;16.400;2022-09-09T01:53:28;4.32;;;0.60;;
35424;SDS011;21537;48.226;16.400;2022-09-09T02:03:47;2.17;;;0.60;;
35424;SDS011;21537;48.226;16.400;2022-09-09T02:06:29;0.40;;;0.40;;
35424;SDS011;21537;48.226;16.400;2022-09-09T02:09:09;0.55;;;0.55;;
35424;SDS011;21537;48.226;16.400;2022-09-09T02:11:39;0.65;;;0.63;;
35424;SDS011;21537;48.226;16.400;2022-09-09T02:14:24;3.47;;;0.60;;
35424;SDS011;21537;48.226;16.400;2022-09-09T02:17:00;3.67;;;0.60;;
35424;SDS011;21537;48.226;16.400;2022-09-09T02:19:53;0.60;;;0.60;;
35424;SDS011;21537;48.226;16.400;2022-09-09T02:22:38;1.25;;;0.93;;
35424;SDS011;21537;48.226;16.400;2022-09-09T02:25:08;0.88;;;0.60;;
35424;SDS011;21537;48.226;16.400;2022-09-09T02:27:37;0.60;;;0.60;;
35424;SDS011;21537;48.226;16.400;2022-09-09T02:30:05;1.20;;;0.80;;
35424;SDS011;21537;48.226;16.400;2022-09-09T02:32:40;4.30;;;0.88;;
35424;SDS011;21537;48.226;16.400;2022-09-09T02:35:12;6.07;;;0.90;;
35424;SDS011;21537;48.226;16.400;2022-09-09T02:37:41;1.52;;;0.80;;
35424;SDS011;21537;48.226;16.400;2022-09-09T02:40:10;2.03;;;0.85;;
35424;SDS011;21537;48.226;16.400;2022-09-09T02:42:45;1.42;;;0.93;;
35424;SDS011;21537;48.226;16.400;2022-09-09T02:45:14;6.15;;;0.90;;
35424;SDS011;21537;48.226;16.400;2022-09-09T02:50:33;0.55;;;0.55;;
35424;SDS011;21537;48.226;16.400;2022-09-09T02:53:47;2.80;;;0.80;;
35424;SDS011;21537;48.226;16.400;2022-09-09T02:56:25;6.97;;;0.93;;
35424;SDS011;21537;48.226;16.400;2022-09-09T02:58:56;2.85;;;0.85;;
35424;SDS011;21537;48.226;16.400;2022-09-09T03:01:23;2.30;;;1.10;;
35424;SDS011;21537;48.226;16.400;2022-09-09T03:03:49;1.25;;;0.75;;
35424;SDS011;21537;48.226;16.400;2022-09-09T03:06:16;1.88;;;1.05;;
35424;SDS011;21537;48.226;16.400;2022-09-09T03:08:46;0.90;;;0.70;;
35424;SDS011;21537;48.226;16.400;2022-09-09T03:11:13;1.85;;;0.95;;
35424;SDS011;21537;48.226;16.400;2022-09-09T03:13:41;1.60;;;0.90;;
35424;SDS011;21537;48.226;16.400;2022-09-09T03:16:09;2.10;;;1.05;;
35424;SDS011;21537;48.226;16.400;2022-09-09T03:18:40;1.95;;;0.90;;
35424;SDS011;21537;48.226;16.400;2022-09-09T03:21:07;2.08;;;0.93;;
35424;SDS011;21537;48.226;16.400;2022-09-09T03:23:35;2.38;;;1.13;;
35424;SDS011;21537;48.226;16.400;2022-09-09T03:26:02;1.25;;;1.15;;
35424;SDS011;21537;48.226;16.400;2022-09-09T03:28:38;2.67;;;1.30;;
35424;SDS011;21537;48.226;16.400;2022-09-09T03:31:05;4.68;;;1.73;;
35424;SDS011;21537;48.226;16.400;2022-09-09T03:33:39;4.20;;;1.80;;
35424;SDS011;21537;48.226;16.400;2022-09-09T03:36:08;4.30;;;1.67;;
35424;SDS011;21537;48.226;16.400;2022-09-09T03:38:35;7.35;;;1.70;;
35424;SDS011;21537;48.226;16.400;2022-09-09T03:41:01;3.60;;;1.80;;
35424;SDS011;21537;48.226;16.400;2022-09-09T03:43:28;3.05;;;2.15;;
35424;SDS011;21537;48.226;16.400;2022-09-09T03:45:55;2.67;;;1.65;;
35424;SDS011;21537;48.226;16.400;2022-09-09T03:48:26;4.22;;;1.80;;
35424;SDS011;21537;48.226;16.400;2022-09-09T03:50:54;5.45;;;1.63;;
35424;SDS011;21537;48.226;16.400;2022-09-09T03:53:22;6.82;;;1.77;;
35424;SDS011;21537;48.226;16.400;2022-09-09T03:55:51;7.60;;;3.10;;
35424;SDS011;21537;48.226;16.400;2022-09-09T03:58:21;5.95;;;2.15;;
35424;SDS011;21537;48.226;16.400;2022-09-09T04:00:56;5.85;;;2.03;;
35424;SDS011;21537;48.226;16.400;2022-09-09T04:03:25;3.08;;;1.90;;
35424;SDS011;21537;48.226;16.400;2022-09-09T04:05:52;6.82;;;2.40;;
35424;SDS011;21537;48.226;16.400;2022-09-09T04:08:20;8.00;;;1.90;;
35424;SDS011;21537;48.226;16.400;2022-09-09T04:10:48;4.30;;;1.80;;
35424;SDS011;21537;48.226;16.400;2022-09-09T04:13:16;4.43;;;1.92;;
35424;SDS011;21537;48.226;16.400;2022-09-09T04:15:44;3.47;;;2.10;;
35424;SDS011;21537;48.226;16.400;2022-09-09T04:18:15;4.93;;;2.00;;
35424;SDS011;21537;48.226;16.400;2022-09-09T04:20:41;8.55;;;1.90;;
35424;SDS011;21537;48.226;16.400;2022-09-09T04:23:09;5.97;;;1.80;;
35424;SDS011;21537;48.226;16.400;2022-09-09T04:25:35;5.70;;;2.10;;
35424;SDS011;21537;48.226;16.400;2022-09-09T04:28:01;5.82;;;2.30;;
35424;SDS011;21537;48.226;16.400;2022-09-09T04:30:28;5.93;;;2.03;;
35424;SDS011;21537;48.226;16.400;2022-09-09T04:32:54;6.03;;;2.15;;
35424;SDS011;21537;48.226;16.400;2022-09-09T04:35:19;4.97;;;2.00;;
35424;SDS011;21537;48.226;16.400;2022-09-09T04:37:46;5.45;;;2.03;;
35424;SDS011;21537;48.226;16.400;2022-09-09T04:40:13;3.85;;;2.00;;
35424;SDS011;21537;48.226;16.400;2022-09-09T04:42:39;3.05;;;2.05;;
35424;SDS011;21537;48.226;16.400;2022-09-09T04:45:11;5.13;;;2.22;;
35424;SDS011;21537;48.226;16.400;2022-09-09T04:47:40;11.27;;;2.30;;
35424;SDS011;21537;48.226;16.400;2022-09-09T04:50:06;4.20;;;2.20;;
35424;SDS011;21537;48.226;16.400;2022-09-09T04:52:36;3.50;;;2.13;;
35424;SDS011;21537;48.226;16.400;2022-09-09T04:55:02;5.13;;;2.30;;
35424;SDS011;21537;48.226;16.400;2022-09-09T04:57:29;6.68;;;1.80;;
35424;SDS011;21537;48.226;16.400;2022-09-09T04:59:57;7.07;;;2.10;;
35424;SDS011;21537;48.226;16.400;2022-09-09T05:02:23;4.18;;;2.25;;
35424;SDS011;21537;48.226;16.400;2022-09-09T05:04:49;5.05;;;2.38;;
35424;SDS011;21537;48.226;16.400;2022-09-09T05:07:15;6.82;;;2.55;;
35424;SDS011;21537;48.226;16.400;2022-09-09T05:09:41;11.60;;;2.78;;
35424;SDS011;21537;48.226;16.400;2022-09-09T05:12:07;7.03;;;2.50;;
35424;SDS011;21537;48.226;16.400;2022-09-09T05:14:35;7.00;;;2.90;;
35424;SDS011;21537;48.226;16.400;2022-09-09T05:17:03;6.60;;;2.40;;
35424;SDS011;21537;48.226;16.400;2022-09-09T05:19:29;5.72;;;2.42;;
35424;SDS011;21537;48.226;16.400;2022-09-09T05:21:56;8.32;;;3.53;;
35424;SDS011;21537;48.226;16.400;2022-09-09T05:24:32;5.32;;;2.75;;
35424;SDS011;21537;48.226;16.400;2022-09-09T05:26:59;3.03;;;2.33;;
35424;SDS011;21537;48.226;16.400;2022-09-09T05:29:27;10.40;;;3.17;;
35424;SDS011;21537;48.226;16.400;2022-09-09T05:31:55;11.48;;;2.78;;
35424;SDS011;21537;48.226;16.400;2022-09-09T05:34:20;5.18;;;2.88;;
35424;SDS011;21537;48.226;16.400;2022-09-09T05:36:46;4.03;;;2.38;;
35424;SDS011;21537;48.226;16.400;2022-09-09T05:39:14;5.30;;;2.85;;
35424;SDS011;21537;48.226;16.400;2022-09-09T05:41:40;5.97;;;2.67;;
35424;SDS011;21537;48.226;16.400;2022-09-09T05:44:05;5.05;;;2.50;;
35424;SDS011;21537;48.226;16.400;2022-09-09T05:46:36;5.07;;;2.55;;
35424;SDS011;21537;48.226;16.400;2022-09-09T05:49:02;6.20;;;2.78;;
35424;SDS011;21537;48.226;16.400;2022-09-09T05:51:31;6.55;;;2.50;;
35424;SDS011;21537;48.226;16.400;2022-09-09T05:54:02;5.60;;;2.63;;
35424;SDS011;21537;48.226;16.400;2022-09-09T05:56:31;7.60;;;3.00;;
35424;SDS011;21537;48.226;16.400;2022-09-09T05:58:58;3.70;;;2.47;;
35424;SDS011;21537;48.226;16.400;2022-09-09T06:01:27;6.57;;;2.65;;
35424;SDS011;21537;48.226;16.400;2022-09-09T06:03:56;8.60;;;3.03;;
35424;SDS011;21537;48.226;16.400;2022-09-09T06:06:24;5.18;;;2.95;;
35424;SDS011;21537;48.226;16.400;2022-09-09T06:08:53;5.45;;;2.90;;
35424;SDS011;21537;48.226;16.400;2022-09-09T06:11:24;6.85;;;2.70;;
35424;SDS011;21537;48.226;16.400;2022-09-09T06:13:52;6.00;;;2.55;;
35424;SDS011;21537;48.226;16.400;2022-09-09T06:16:20;8.75;;;2.65;;
35424;SDS011;21537;48.226;16.400;2022-09-09T06:18:52;10.50;;;3.05;;
35424;SDS011;21537;48.226;16.400;2022-09-09T06:21:24;6.65;;;2.83;;
35424;SDS011;21537;48.226;16.400;2022-09-09T06:23:52;8.73;;;2.90;;
35424;SDS011;21537;48.226;16.400;2022-09-09T06:26:23;7.38;;;3.28;;
35424;SDS011;21537;48.226;16.400;2022-09-09T06:28:52;6.80;;;3.38;;
35424;SDS011;21537;48.226;16.400;2022-09-09T06:31:22;11.43;;;3.20;;
35424;SDS011;21537;48.226;16.400;2022-09-09T06:33:51;10.10;;;2.95;;
35424;SDS011;21537;48.226;16.400;2022-09-09T06:36:19;6.78;;;2.85;;
35424;SDS011;21537;48.226;16.400;2022-09-09T06:38:50;9.48;;;2.72;;
35424;SDS011;21537;48.226;16.400;2022-09-09T06:41:18;6.32;;;2.85;;
35424;SDS011;21537;48.226;16.400;2022-09-09T06:43:45;8.00;;;4.20;;
35424;SDS011;21537;48.226;16.400;2022-09-09T06:46:19;5.63;;;3.40;;
35424;SDS011;21537;48.226;16.400;2022-09-09T06:48:48;8.55;;;3.55;;
35424;SDS011;21537;48.226;16.400;2022-09-09T06:51:19;11.07;;;3.10;;
35424;SDS011;21537;48.226;16.400;2022-09-09T06:53:56;8.30;;;3.38;;
35424;SDS011;21537;48.226;16.400;2022-09-09T06:56:25;12.27;;;2.90;;
35424;SDS011;21537;48.226;16.400;2022-09-09T06:58:54;4.43;;;2.78;;
35424;SDS011;21537;48.226;16.400;2022-09-09T07:01:25;6.90;;;2.67;;
35424;SDS011;21537;48.226;16.400;2022-09-09T07:03:55;5.47;;;2.40;;
35424;SDS011;21537;48.226;16.400;2022-09-09T07:06:25;5.13;;;2.40;;
35424;SDS011;21537;48.226;16.400;2022-09-09T07:08:54;5.80;;;2.70;;
35424;SDS011;21537;48.226;16.400;2022-09-09T07:11:29;6.57;;;2.45;;
35424;SDS011;21537;48.226;16.400;2022-09-09T07:13:57;8.13;;;2.80;;
35424;SDS011;21537;48.226;16.400;2022-09-09T07:16:25;5.65;;;2.60;;
35424;SDS011;21537;48.226;16.400;2022-09-09T07:18:55;6.82;;;2.58;;
35424;SDS011;21537;48.226;16.400;2022-09-09T07:21:27;3.75;;;2.40;;
35424;SDS011;21537;48.226;16.400;2022-09-09T07:23:54;7.13;;;2.53;;
35424;SDS011;21537;48.226;16.400;2022-09-09T07:26:22;8.55;;;2.60;;
35424;SDS011;21537;48.226;16.400;2022-09-09T07:28:51;5.57;;;2.60;;
35424;SDS011;21537;48.226;16.400;2022-09-09T07:31:23;7.22;;;3.22;;
35424;SDS011;21537;48.226;16.400;2022-09-09T07:33:51;7.07;;;3.13;;
35424;SDS011;21537;48.226;16.400;2022-09-09T07:36:19;3.72;;;2.47;;
35424;SDS011;21537;48.226;16.400;2022-09-09T07:38:53;7.97;;;3.33;;
35424;SDS011;21537;48.226;16.400;2022-09-09T07:41:29;5.32;;;2.40;;
35424;SDS011;21537;48.226;16.400;2022-09-09T07:43:59;3.50;;;2.40;;
35424;SDS011;21537;48.226;16.400;2022-09-09T07:46:34;4.25;;;2.38;;
35424;SDS011;21537;48.226;16.400;2022-09-09T07:49:00;4.28;;;2.45;;
35424;SDS011;21537;48.226;16.400;2022-09-09T07:51:34;5.93;;;2.25;;
35424;SDS011;21537;48.226;16.400;2022-09-09T07:54:02;3.78;;;2.20;;
35424;SDS011;21537;48.226;16.400;2022-09-09T07:56:31;7.78;;;2.55;;
35424;SDS011;21537;48.226;16.400;2022-09-09T07:58:58;11.18;;;2.78;;
35424;SDS011;21537;48.226;16.400;2022-09-09T08:06:21;14.95;;;3.15;;
35424;SDS011;21537;48.226;16.400;2022-09-09T08:08:49;5.60;;;2.47;;
35424;SDS011;21537;48.226;16.400;2022-09-09T08:11:16;5.70;;;2.88;;
35424;SDS011;21537;48.226;16.400;2022-09-09T08:13:43;6.78;;;2.65;;
35424;SDS011;21537;48.226;16.400;2022-09-09T08:16:13;5.60;;;2.58;;
35424;SDS011;21537;48.226;16.400;2022-09-09T08:18:41;8.20;;;2.88;;
35424;SDS011;21537;48.226;16.400;2022-09-09T08:21:08;7.18;;;2.60;;
35424;SDS011;21537;48.226;16.400;2022-09-09T08:23:40;6.05;;;2.67;;
35424;SDS011;21537;48.226;16.400;2022-09-09T08:26:11;5.15;;;2.42;;
35424;SDS011;21537;48.226;16.400;2022-09-09T08:28:40;6.30;;;2.60;;
35424;SDS011;21537;48.226;16.400;2022-09-09T08:31:08;3.83;;;2.58;;
35424;SDS011;21537;48.226;16.400;2022-09-09T08:33:38;6.55;;;2.38;;
35424;SDS011;21537;48.226;16.400;2022-09-09T08:36:05;7.03;;;2.80;;
35424;SDS011;21537;48.226;16.400;2022-09-09T08:38:33;8.63;;;2.45;;
35424;SDS011;21537;48.226;16.400;2022-09-09T08:41:05;5.95;;;2.20;;
35424;SDS011;21537;48.226;16.400;2022-09-09T08:43:43;4.47;;;2.47;;
35424;SDS011;21537;48.226;16.400;2022-09-09T08:46:15;8.85;;;2.25;;
35424;SDS011;21537;48.226;16.400;2022-09-09T08:48:53;3.97;;;2.03;;
35424;SDS011;21537;48.226;16.400;2022-09-09T08:51:26;5.22;;;2.78;;
35424;SDS011;21537;48.226;16.400;2022-09-09T08:53:55;7.85;;;2.33;;
35424;SDS011;21537;48.226;16.400;2022-09-09T08:56:26;8.30;;;2.75;;
35424;SDS011;21537;48.226;16.400;2022-09-09T08:58:58;4.95;;;2.25;;
35424;SDS011;21537;48.226;16.400;2022-09-09T09:12:15;4.32;;;1.63;;
35424;SDS011;21537;48.226;16.400;2022-09-09T09:14:48;3.90;;;1.50;;
35424;SDS011;21537;48.226;16.400;2022-09-09T09:17:16;3.97;;;1.40;;
35424;SDS011;21537;48.226;16.400;2022-09-09T09:19:49;6.22;;;1.20;;
35424;SDS011;21537;48.226;16.400;2022-09-09T09:24:45;6.45;;;1.23;;
35424;SDS011;21537;48.226;16.400;2022-09-09T09:29:58;3.63;;;1.05;;
35424;SDS011;21537;48.226;16.400;2022-09-09T09:32:27;3.83;;;1.08;;
35424;SDS011;21537;48.226;16.400;2022-09-09T09:34:58;1.98;;;1.17;;
35424;SDS011;21537;48.226;16.400;2022-09-09T09:37:27;2.35;;;1.10;;
35424;SDS011;21537;48.226;16.400;2022-09-09T09:39:56;2.35;;;1.05;;
35424;SDS011;21537;48.226;16.400;2022-09-09T09:42:37;1.52;;;1.00;;
35424;SDS011;21537;48.226;16.400;2022-09-09T09:48:15;1.35;;;0.90;;
35424;SDS011;21537;48.226;16.400;2022-09-09T09:50:58;1.77;;;0.93;;
35424;SDS011;21537;48.226;16.400;2022-09-09T09:53:27;2.92;;;0.95;;
35424;SDS011;21537;48.226;16.400;2022-09-09T09:56:02;1.67;;;0.93;;
35424;SDS011;21537;48.226;16.400;2022-09-09T09:58:33;3.05;;;0.88;;
35424;SDS011;21537;48.226;16.400;2022-09-09T10:04:03;4.63;;;1.00;;
35424;SDS011;21537;48.226;16.400;2022-09-09T10:06:45;4.88;;;0.93;;
35424;SDS011;21537;48.226;16.400;2022-09-09T10:09:25;5.28;;;0.80;;
35424;SDS011;21537;48.226;16.400;2022-09-09T10:11:55;2.00;;;1.00;;
35424;SDS011;21537;48.226;16.400;2022-09-09T10:20:40;1.50;;;0.90;;
35424;SDS011;21537;48.226;16.400;2022-09-09T10:23:38;5.10;;;0.70;;
35424;SDS011;21537;48.226;16.400;2022-09-09T10:29:24;5.03;;;1.15;;
35424;SDS011;21537;48.226;16.400;2022-09-09T10:40:43;8.23;;;2.15;;
35424;SDS011;21537;48.226;16.400;2022-09-09T10:49:28;3.72;;;1.05;;
35424;SDS011;21537;48.226;16.400;2022-09-09T10:57:44;2.25;;;1.25;;
35424;SDS011;21537;48.226;16.400;2022-09-09T11:00:18;5.55;;;1.55;;
35424;SDS011;21537;48.226;16.400;2022-09-09T11:02:55;1.27;;;1.00;;
35424;SDS011;21537;48.226;16.400;2022-09-09T11:07:57;4.43;;;1.17;;
35424;SDS011;21537;48.226;16.400;2022-09-09T11:10:58;2.15;;;0.98;;
35424;SDS011;21537;48.226;16.400;2022-09-09T11:13:37;2.65;;;1.20;;
35424;SDS011;21537;48.226;16.400;2022-09-09T11:22:06;2.75;;;1.17;;
35424;SDS011;21537;48.226;16.400;2022-09-09T11:24:41;3.85;;;0.98;;
35424;SDS011;21537;48.226;16.400;2022-09-09T11:30:22;1.13;;;0.82;;
35424;SDS011;21537;48.226;16.400;2022-09-09T11:40:43;2.45;;;1.05;;
35424;SDS011;21537;48.226;16.400;2022-09-09T11:45:38;3.80;;;1.30;;
35424;SDS011;21537;48.226;16.400;2022-09-09T11:48:21;5.00;;;1.30;;
35424;SDS011;21537;48.226;16.400;2022-09-09T11:51:01;3.70;;;1.00;;
35424;SDS011;21537;48.226;16.400;2022-09-09T11:53:30;3.22;;;0.90;;
35424;SDS011;21537;48.226;16.400;2022-09-09T11:58:28;1.10;;;0.70;;
35424;SDS011;21537;48.226;16.400;2022-09-09T12:01:16;3.13;;;1.48;;
35424;SDS011;21537;48.226;16.400;2022-09-09T12:04:17;1.77;;;0.90;;
35424;SDS011;21537;48.226;16.400;2022-09-09T12:14:43;1.60;;;0.90;;
35424;SDS011;21537;48.226;16.400;2022-09-09T12:17:20;2.05;;;1.05;;
35424;SDS011;21537;48.226;16.400;2022-09-09T12:19:48;5.15;;;1.52;;
35424;SDS011;21537;48.226;16.400;2022-09-09T12:28:20;1.77;;;0.80;;
35424;SDS011;21537;48.226;16.400;2022-09-09T12:33:48;4.40;;;1.25;;
35424;SDS011;21537;48.226;16.400;2022-09-09T12:36:15;2.35;;;1.20;;
35424;SDS011;21537;48.226;16.400;2022-09-09T12:38:49;3.53;;;1.00;;
35424;SDS011;21537;48.226;16.400;2022-09-09T12:41:23;2.72;;;1.27;;
35424;SDS011;21537;48.226;16.400;2022-09-09T12:43:51;3.33;;;1.13;;
35424;SDS011;21537;48.226;16.400;2022-09-09T12:46:38;1.58;;;1.10;;
35424;SDS011;21537;48.226;16.400;2022-09-09T12:49:26;1.08;;;0.80;;
35424;SDS011;21537;48.226;16.400;2022-09-09T12:52:02;4.70;;;1.33;;
35424;SDS011;21537;48.226;16.400;2022-09-09T12:54:51;2.50;;;1.08;;
35424;SDS011;21537;48.226;16.400;2022-09-09T12:57:19;4.10;;;1.13;;
35424;SDS011;21537;48.226;16.400;2022-09-09T12:59:47;2.22;;;0.90;;
35424;SDS011;21537;48.226;16.400;2022-09-09T13:02:20;5.35;;;1.20;;
35424;SDS011;21537;48.226;16.400;2022-09-09T13:04:48;1.98;;;1.08;;
35424;SDS011;21537;48.226;16.400;2022-09-09T13:07:15;3.13;;;1.17;;
35424;SDS011;21537;48.226;16.400;2022-09-09T13:09:45;2.25;;;1.00;;
35424;SDS011;21537;48.226;16.400;2022-09-09T13:12:18;1.83;;;1.10;;
35424;SDS011;21537;48.226;16.400;2022-09-09T13:14:47;3.85;;;1.13;;
35424;SDS011;21537;48.226;16.400;2022-09-09T13:17:20;1.25;;;0.98;;
35424;SDS011;21537;48.226;16.400;2022-09-09T13:19:51;2.13;;;1.17;;
35424;SDS011;21537;48.226;16.400;2022-09-09T13:25:00;4.38;;;1.60;;
35424;SDS011;21537;48.226;16.400;2022-09-09T13:27:36;4.55;;;1.80;;
35424;SDS011;21537;48.226;16.400;2022-09-09T13:30:20;2.53;;;1.10;;
35424;SDS011;21537;48.226;16.400;2022-09-09T13:33:04;2.22;;;1.38;;
35424;SDS011;21537;48.226;16.400;2022-09-09T13:35:31;1.40;;;1.10;;
35424;SDS011;21537;48.226;16.400;2022-09-09T13:37:58;7.80;;;1.17;;
35424;SDS011;21537;48.226;16.400;2022-09-09T13:40:32;1.42;;;0.85;;
35424;SDS011;21537;48.226;16.400;2022-09-09T13:42:59;1.75;;;1.00;;
35424;SDS011;21537;48.226;16.400;2022-09-09T13:45:27;4.70;;;1.40;;
35424;SDS011;21537;48.226;16.400;2022-09-09T13:47:53;3.65;;;1.33;;
35424;SDS011;21537;48.226;16.400;2022-09-09T13:50:21;2.33;;;0.90;;
35424;SDS011;21537;48.226;16.400;2022-09-09T13:52:53;6.63;;;1.58;;
35424;SDS011;21537;48.226;16.400;2022-09-09T13:55:21;2.28;;;1.30;;
35424;SDS011;21537;48.226;16.400;2022-09-09T14:00:21;7.10;;;1.48;;
35424;SDS011;21537;48.226;16.400;2022-09-09T14:02:49;1.73;;;0.80;;
35424;SDS011;21537;48.226;16.400;2022-09-09T14:05:16;1.55;;;1.13;;
35424;SDS011;21537;48.226;16.400;2022-09-09T14:07:44;5.10;;;1.35;;
35424;SDS011;21537;48.226;16.400;2022-09-09T14:10:11;2.38;;;0.95;;
35424;SDS011;21537;48.226;16.400;2022-09-09T14:12:37;6.38;;;1.92;;
35424;SDS011;21537;48.226;16.400;2022-09-09T14:15:10;6.75;;;2.15;;
35424;SDS011;21537;48.226;16.400;2022-09-09T14:17:37;4.63;;;1.35;;
35424;SDS011;21537;48.226;16.400;2022-09-09T14:20:09;2.60;;;1.05;;
35424;SDS011;21537;48.226;16.400;2022-09-09T14:22:41;4.20;;;1.35;;
35424;SDS011;21537;48.226;16.400;2022-09-09T14:25:10;2.97;;;1.13;;
35424;SDS011;21537;48.226;16.400;2022-09-09T14:27:38;3.67;;;1.55;;
35424;SDS011;21537;48.226;16.400;2022-09-09T14:30:05;3.30;;;1.27;;
35424;SDS011;21537;48.226;16.400;2022-09-09T14:32:37;4.13;;;1.73;;
35424;SDS011;21537;48.226;16.400;2022-09-09T14:35:03;4.80;;;1.33;;
35424;SDS011;21537;48.226;16.400;2022-09-09T14:37:29;4.90;;;1.10;;
35424;SDS011;21537;48.226;16.400;2022-09-09T14:39:56;2.85;;;1.40;;
35424;SDS011;21537;48.226;16.400;2022-09-09T14:42:22;5.32;;;1.27;;
35424;SDS011;21537;48.226;16.400;2022-09-09T14:44:48;4.50;;;1.60;;
35424;SDS011;21537;48.226;16.400;2022-09-09T14:47:14;2.45;;;1.10;;
35424;SDS011;21537;48.226;16.400;2022-09-09T14:49:40;5.00;;;1.55;;
35424;SDS011;21537;48.226;16.400;2022-09-09T14:52:06;14.60;;;1.90;;
35424;SDS011;21537;48.226;16.400;2022-09-09T14:54:34;5.38;;;1.35;;
35424;SDS011;21537;48.226;16.400;2022-09-09T14:56:59;5.63;;;1.27;;
35424;SDS011;21537;48.226;16.400;2022-09-09T14:59:25;7.13;;;1.60;;
35424;SDS011;21537;48.226;16.400;2022-09-09T15:01:51;4.38;;;1.40;;
35424;SDS011;21537;48.226;16.400;2022-09-09T15:04:18;4.05;;;1.42;;
35424;SDS011;21537;48.226;16.400;2022-09-09T15:06:44;4.15;;;1.45;;
35424;SDS011;21537;48.226;16.400;2022-09-09T15:09:13;5.20;;;1.50;;
35424;SDS011;21537;48.226;16.400;2022-09-09T15:11:39;6.45;;;3.65;;
35424;SDS011;21537;48.226;16.400;2022-09-09T15:14:06;5.25;;;1.85;;
35424;SDS011;21537;48.226;16.400;2022-09-09T15:16:33;2.42;;;1.30;;
35424;SDS011;21537;48.226;16.400;2022-09-09T15:19:00;4.20;;;1.73;;
35424;SDS011;21537;48.226;16.400;2022-09-09T15:21:28;2.92;;;1.75;;
35424;SDS011;21537;48.226;16.400;2022-09-09T15:23:56;4.32;;;1.70;;
35424;SDS011;21537;48.226;16.400;2022-09-09T15:26:22;4.80;;;1.75;;
35424;SDS011;21537;48.226;16.400;2022-09-09T15:28:48;2.60;;;1.38;;
35424;SDS011;21537;48.226;16.400;2022-09-09T15:31:16;2.42;;;1.33;;
35424;SDS011;21537;48.226;16.400;2022-09-09T15:34:17;4.57;;;1.45;;
35424;SDS011;21537;48.226;16.400;2022-09-09T15:36:42;4.70;;;1.40;;
35424;SDS011;21537;48.226;16.400;2022-09-09T15:39:10;5.10;;;1.60;;
35424;SDS011;21537;48.226;16.400;2022-09-09T15:41:38;2.03;;;1.30;;
35424;SDS011;21537;48.226;16.400;2022-09-09T15:44:04;1.73;;;1.17;;
35424;SDS011;21537;48.226;16.400;2022-09-09T15:46:37;4.60;;;1.27;;
35424;SDS011;21537;48.226;16.400;2022-09-09T15:51:47;5.47;;;1.77;;
35424;SDS011;21537;48.226;16.400;2022-09-09T15:54:18;2.55;;;1.33;;
35424;SDS011;21537;48.226;16.400;2022-09-09T15:56:46;3.00;;;1.15;;
35424;SDS011;21537;48.226;16.400;2022-09-09T15:59:13;2.78;;;1.10;;
35424;SDS011;21537;48.226;16.400;2022-09-09T16:01:40;1.73;;;1.30;;
35424;SDS011;21537;48.226;16.400;2022-09-09T16:04:07;2.42;;;1.30;;
35424;SDS011;21537;48.226;16.400;2022-09-09T16:06:33;4.18;;;1.38;;
35424;SDS011;21537;48.226;16.400;2022-09-09T16:09:00;5.38;;;1.40;;
35424;SDS011;21537;48.226;16.400;2022-09-09T16:11:30;3.42;;;1.40;;
35424;SDS011;21537;48.226;16.400;2022-09-09T16:13:58;2.75;;;1.08;;
35424;SDS011;21537;48.226;16.400;2022-09-09T16:16:25;5.63;;;1.45;;
35424;SDS011;21537;48.226;16.400;2022-09-09T16:18:53;2.75;;;1.40;;
35424;SDS011;21537;48.226;16.400;2022-09-09T16:21:25;3.25;;;1.30;;
35424;SDS011;21537;48.226;16.400;2022-09-09T16:23:54;5.65;;;1.45;;
35424;SDS011;21537;48.226;16.400;2022-09-09T16:26:20;3.17;;;1.15;;
35424;SDS011;21537;48.226;16.400;2022-09-09T16:28:47;2.78;;;1.10;;
35424;SDS011;21537;48.226;16.400;2022-09-09T16:31:17;2.80;;;1.30;;
35424;SDS011;21537;48.226;16.400;2022-09-09T16:33:46;3.65;;;1.50;;
35424;SDS011;21537;48.226;16.400;2022-09-09T16:36:22;2.15;;;1.23;;
35424;SDS011;21537;48.226;16.400;2022-09-09T16:38:53;4.95;;;1.50;;
35424;SDS011;21537;48.226;16.400;2022-09-09T16:41:20;4.82;;;1.77;;
35424;SDS011;21537;48.226;16.400;2022-09-09T16:43:47;3.28;;;1.63;;
35424;SDS011;21537;48.226;16.400;2022-09-09T16:46:17;2.78;;;1.52;;
35424;SDS011;21537;48.226;16.400;2022-09-09T16:48:45;5.32;;;1.90;;
35424;SDS011;21537;48.226;16.400;2022-09-09T16:53:45;4.10;;;1.23;;
35424;SDS011;21537;48.226;16.400;2022-09-09T16:56:21;6.18;;;1.58;;
35424;SDS011;21537;48.226;16.400;2022-09-09T16:58:52;4.05;;;2.05;;
35424;SDS011;21537;48.226;16.400;2022-09-09T17:01:21;3.03;;;1.70;;
35424;SDS011;21537;48.226;16.400;2022-09-09T17:03:47;2.35;;;1.38;;
35424;SDS011;21537;48.226;16.400;2022-09-09T17:06:21;3.72;;;1.58;;
35424;SDS011;21537;48.226;16.400;2022-09-09T17:08:47;4.10;;;1.50;;
35424;SDS011;21537;48.226;16.400;2022-09-09T17:11:17;2.47;;;1.58;;
35424;SDS011;21537;48.226;16.400;2022-09-09T17:13:44;3.00;;;1.40;;
35424;SDS011;21537;48.226;16.400;2022-09-09T17:16:12;3.70;;;1.55;;
35424;SDS011;21537;48.226;16.400;2022-09-09T17:18:39;3.85;;;1.38;;
35424;SDS011;21537;48.226;16.400;2022-09-09T17:21:06;3.17;;;1.30;;
35424;SDS011;21537;48.226;16.400;2022-09-09T17:23:34;3.17;;;1.63;;
35424;SDS011;21537;48.226;16.400;2022-09-09T17:26:03;3.65;;;2.05;;